Time,TemperatureF,DewpointF,PressureIn,WindDirection,WindDirectionDegrees,WindSpeedMPH,WindSpeedGustMPH,Humidity,HourlyPrecipIn,Conditions,Clouds,dailyrainin,SoftwareType,DateUTC
2013-09-08 00:02:00,74.8,68.0,29.92,North,5,0.0,-999.0,79,0.00,,,0.00,PyWeather,2013-09-08 10:02:00,
2013-09-08 00:07:00,74.1,67.6,29.92,North,9,0.0,-999.0,80,0.00,,,0.00,PyWeather,2013-09-08 10:07:00,
2013-09-08 00:12:00,74.0,67.9,29.92,North,5,0.0,-999.0,81,0.00,,,0.00,PyWeather,2013-09-08 10:12:00,
2013-09-08 00:17:00,73.8,67.7,29.93,North,9,0.0,-999.0,81,0.00,,,0.00,PyWeather,2013-09-08 10:17:00,
2013-09-08 00:22:00,73.8,67.7,29.93,North,5,0.0,-999.0,81,0.00,,,0.00,PyWeather,2013-09-08 10:22:00,
2013-09-08 00:27:00,73.9,68.1,29.92,North,5,0.0,-999.0,82,0.00,,,0.00,PyWeather,2013-09-08 10:27:00,
2013-09-08 00:32:00,74.0,68.2,29.92,North,11,0.0,-999.0,82,0.00,,,0.00,PyWeather,2013-09-08 10:32:00,
2013-09-08 00:37:00,74.4,68.6,29.92,NE,38,0.0,-999.0,82,0.00,,,0.00,PyWeather,2013-09-08 10:37:00,
2013-09-08 00:42:00,74.9,69.1,29.92,NE,43,1.0,-999.0,82,0.00,,,0.00,PyWeather,2013-09-08 10:42:00,
2013-09-08 00:47:00,75.3,69.2,29.92,NE,53,3.0,-999.0,81,0.00,,,0.00,PyWeather,2013-09-08 10:47:00,
2013-09-08 00:52:00,75.5,69.0,29.92,ENE,60,3.0,-999.0,80,0.00,,,0.00,PyWeather,2013-09-08 10:52:00,
2013-09-08 00:57:00,75.5,68.6,29.92,ENE,75,2.0,-999.0,79,0.00,,,0.00,PyWeather,2013-09-08 10:57:00,
2013-09-08 01:02:00,75.4,68.2,29.92,ENE,75,2.0,-999.0,78,0.00,,,0.00,PyWeather,2013-09-08 11:02:00,
2013-09-08 01:07:00,75.2,68.3,29.92,ENE,74,2.0,-999.0,79,0.00,,,0.00,PyWeather,2013-09-08 11:07:00,
2013-09-08 01:12:00,75.4,68.5,29.92,ENE,74,0.0,-999.0,79,0.00,,,0.00,PyWeather,2013-09-08 11:12:00,
2013-09-08 01:17:00,75.6,68.4,29.92,ENE,75,0.0,-999.0,78,0.00,,,0.00,PyWeather,2013-09-08 11:17:00,
2013-09-08 01:22:00,75.8,68.6,29.92,ENE,76,0.0,-999.0,78,0.00,,,0.00,PyWeather,2013-09-08 11:22:00,
2013-09-08 01:27:00,75.4,68.2,29.92,North,360,0.0,-999.0,78,0.00,,,0.00,PyWeather,2013-09-08 11:27:00,
2013-09-08 01:32:00,74.3,67.8,29.92,NNE,16,2.0,-999.0,80,0.00,,,0.00,PyWeather,2013-09-08 11:32:00,
2013-09-08 01:37:00,73.9,67.8,29.92,NNE,15,2.0,-999.0,81,0.00,,,0.00,PyWeather,2013-09-08 11:37:00,
2013-09-08 01:42:00,73.7,67.9,29.92,NNE,16,0.0,-999.0,82,0.00,,,0.00,PyWeather,2013-09-08 11:42:00,
2013-09-08 01:47:00,73.8,68.4,29.92,NNE,17,0.0,-999.0,83,0.00,,,0.00,PyWeather,2013-09-08 11:47:00,
2013-09-08 01:52:00,73.9,68.5,29.91,NNE,16,0.0,-999.0,83,0.00,,,0.00,PyWeather,2013-09-08 11:52:00,
2013-09-08 01:57:00,73.7,68.3,29.91,NNE,15,0.0,-999.0,83,0.00,,,0.00,PyWeather,2013-09-08 11:57:00,
2013-09-08 02:02:00,73.7,68.3,29.91,NNE,16,0.0,-999.0,83,0.00,,,0.00,PyWeather,2013-09-08 12:02:00,
2013-09-08 02:07:00,73.9,68.8,29.91,NNE,17,0.0,-999.0,84,0.00,,,0.00,PyWeather,2013-09-08 12:07:00,
2013-09-08 02:12:00,73.9,68.8,29.91,NNE,16,0.0,-999.0,84,0.00,,,0.00,PyWeather,2013-09-08 12:12:00,
2013-09-08 02:17:00,74.2,69.1,29.91,NNE,19,0.0,-999.0,84,0.00,,,0.00,PyWeather,2013-09-08 12:17:00,
2013-09-08 02:22:00,74.2,69.1,29.91,NE,52,2.0,-999.0,84,0.00,,,0.00,PyWeather,2013-09-08 12:22:00,
2013-09-08 02:27:00,74.0,68.6,29.90,ENE,61,2.0,-999.0,83,0.00,,,0.00,PyWeather,2013-09-08 12:27:00,
2013-09-08 02:32:00,74.0,68.6,29.90,ENE,61,1.0,-999.0,83,0.00,,,0.00,PyWeather,2013-09-08 12:32:00,
2013-09-08 02:37:00,74.0,68.2,29.90,ENE,61,0.0,-999.0,82,0.00,,,0.00,PyWeather,2013-09-08 12:37:00,
2013-09-08 02:42:00,74.0,68.2,29.89,ENE,60,0.0,-999.0,82,0.00,,,0.00,PyWeather,2013-09-08 12:42:00,
2013-09-08 02:47:00,73.6,67.8,29.89,NW,311,1.0,-999.0,82,0.00,,,0.00,PyWeather,2013-09-08 12:47:00,
2013-09-08 02:52:00,73.3,67.9,29.90,North,355,2.0,-999.0,83,0.00,,,0.00,PyWeather,2013-09-08 12:52:00,
2013-09-08 02:57:00,73.3,68.2,29.89,NNE,24,1.0,-999.0,84,0.00,,,0.00,PyWeather,2013-09-08 12:57:00,
2013-09-08 03:02:00,73.1,68.0,29.89,NNE,22,0.0,-999.0,84,0.00,,,0.00,PyWeather,2013-09-08 13:02:00,
2013-09-08 03:07:00,73.1,68.4,29.89,NNE,23,0.0,-999.0,85,0.00,,,0.00,PyWeather,2013-09-08 13:07:00,
2013-09-08 03:12:00,72.9,67.8,29.89,NNE,22,0.0,-999.0,84,0.00,,,0.00,PyWeather,2013-09-08 13:12:00,
2013-09-08 03:17:00,72.9,67.8,29.89,NNE,23,0.0,-999.0,84,0.00,,,0.00,PyWeather,2013-09-08 13:17:00,
2013-09-08 03:22:00,73.0,68.3,29.89,NNE,25,0.0,-999.0,85,0.00,,,0.00,PyWeather,2013-09-08 13:22:00,
2013-09-08 03:27:00,73.1,68.4,29.89,NNE,26,0.0,-999.0,85,0.00,,,0.00,PyWeather,2013-09-08 13:27:00,
2013-09-08 03:32:00,73.2,68.5,29.89,NNE,24,0.0,-999.0,85,0.00,,,0.00,PyWeather,2013-09-08 13:32:00,
2013-09-08 03:37:00,73.2,68.1,29.89,NNE,26,0.0,-999.0,84,0.00,,,0.00,PyWeather,2013-09-08 13:37:00,
2013-09-08 03:42:00,73.1,67.3,29.89,North,355,0.0,-999.0,82,0.00,,,0.00,PyWeather,2013-09-08 13:42:00,
2013-09-08 03:47:00,72.1,66.7,29.89,NNE,26,3.0,-999.0,83,0.00,,,0.00,PyWeather,2013-09-08 13:47:00,
2013-09-08 03:52:00,72.0,67.3,29.89,NNE,25,3.0,-999.0,85,0.00,,,0.00,PyWeather,2013-09-08 13:52:00,
2013-09-08 03:57:00,71.6,66.9,29.89,North,355,1.0,-999.0,85,0.00,,,0.00,PyWeather,2013-09-08 13:57:00,
2013-09-08 04:02:00,71.7,67.3,29.89,North,355,2.0,-999.0,86,0.00,,,0.00,PyWeather,2013-09-08 14:02:00,
2013-09-08 04:07:00,71.8,67.4,29.89,North,355,1.0,-999.0,86,0.00,,,0.00,PyWeather,2013-09-08 14:07:00,
2013-09-08 04:12:00,72.0,67.6,29.89,North,355,0.0,-999.0,86,0.00,,,0.00,PyWeather,2013-09-08 14:12:00,
2013-09-08 04:17:00,72.1,67.7,29.89,North,351,0.0,-999.0,86,0.00,,,0.00,PyWeather,2013-09-08 14:17:00,
2013-09-08 04:22:00,72.4,68.0,29.89,North,355,0.0,-999.0,86,0.00,,,0.00,PyWeather,2013-09-08 14:22:00,
2013-09-08 04:27:00,72.6,67.9,29.89,North,355,0.0,-999.0,85,0.00,,,0.00,PyWeather,2013-09-08 14:27:00,
2013-09-08 04:32:00,72.5,67.4,29.89,NNE,14,0.0,-999.0,84,0.00,,,0.00,PyWeather,2013-09-08 14:32:00,
2013-09-08 04:37:00,72.3,67.2,29.89,NNE,14,1.0,-999.0,84,0.00,,,0.00,PyWeather,2013-09-08 14:37:00,
2013-09-08 04:42:00,72.0,66.9,29.89,NNE,18,2.0,-999.0,84,0.00,,,0.00,PyWeather,2013-09-08 14:42:00,
2013-09-08 04:47:00,71.7,66.6,29.90,NNE,19,2.0,-999.0,84,0.00,,,0.00,PyWeather,2013-09-08 14:47:00,
2013-09-08 04:52:00,71.6,66.9,29.90,NNE,19,1.0,-999.0,85,0.00,,,0.00,PyWeather,2013-09-08 14:52:00,
2013-09-08 04:57:00,71.6,66.9,29.90,NNE,19,0.0,-999.0,85,0.00,,,0.00,PyWeather,2013-09-08 14:57:00,
2013-09-08 05:02:00,71.6,66.9,29.90,NNE,19,0.0,-999.0,85,0.00,,,0.00,PyWeather,2013-09-08 15:02:00,
2013-09-08 05:07:00,71.5,66.8,29.90,NNE,19,0.0,-999.0,85,0.00,,,0.00,PyWeather,2013-09-08 15:07:00,
2013-09-08 05:12:00,71.5,66.8,29.90,NNE,19,0.0,-999.0,85,0.00,,,0.00,PyWeather,2013-09-08 15:12:00,
2013-09-08 05:17:00,71.5,66.8,29.90,NNE,19,0.0,-999.0,85,0.00,,,0.00,PyWeather,2013-09-08 15:17:00,
2013-09-08 05:22:00,71.5,66.8,29.90,NNE,17,0.0,-999.0,85,0.00,,,0.00,PyWeather,2013-09-08 15:22:00,
2013-09-08 05:27:00,71.7,67.0,29.91,NNE,20,0.0,-999.0,85,0.00,,,0.00,PyWeather,2013-09-08 15:27:00,
2013-09-08 05:32:00,71.5,66.8,29.91,NNE,19,0.0,-999.0,85,0.00,,,0.00,PyWeather,2013-09-08 15:32:00,
2013-09-08 05:37:00,71.5,66.8,29.91,NNE,19,0.0,-999.0,85,0.00,,,0.00,PyWeather,2013-09-08 15:37:00,
2013-09-08 05:42:00,71.4,66.4,29.91,NNE,19,0.0,-999.0,84,0.00,,,0.00,PyWeather,2013-09-08 15:42:00,
2013-09-08 05:47:00,71.1,66.1,29.91,NNE,19,0.0,-999.0,84,0.00,,,0.00,PyWeather,2013-09-08 15:47:00,
2013-09-08 05:52:00,71.1,66.4,29.91,NNE,18,0.0,-999.0,85,0.00,,,0.00,PyWeather,2013-09-08 15:52:00,
2013-09-08 05:57:00,71.0,66.3,29.91,NNE,19,0.0,-999.0,85,0.00,,,0.00,PyWeather,2013-09-08 15:57:00,
2013-09-08 06:02:00,70.7,66.0,29.91,NNE,19,0.0,-999.0,85,0.00,,,0.00,PyWeather,2013-09-08 16:02:00,
2013-09-08 06:07:00,70.5,65.8,29.91,NNE,19,0.0,-999.0,85,0.00,,,0.00,PyWeather,2013-09-08 16:07:00,
2013-09-08 06:12:00,70.4,65.7,29.91,NNE,19,0.0,-999.0,85,0.00,,,0.00,PyWeather,2013-09-08 16:12:00,
2013-09-08 06:17:00,70.4,65.7,29.91,NNE,19,0.0,-999.0,85,0.00,,,0.00,PyWeather,2013-09-08 16:17:00,
2013-09-08 06:22:00,70.3,65.6,29.91,NNE,18,0.0,-999.0,85,0.00,,,0.00,PyWeather,2013-09-08 16:22:00,
2013-09-08 06:27:00,70.5,66.1,29.91,NNE,18,0.0,-999.0,86,0.00,,,0.00,PyWeather,2013-09-08 16:27:00,
2013-09-08 06:32:00,70.6,66.2,29.92,NNE,20,0.0,-999.0,86,0.00,,,0.00,PyWeather,2013-09-08 16:32:00,
2013-09-08 06:38:00,70.8,66.4,29.92,NE,48,1.0,-999.0,86,0.00,,,0.00,PyWeather,2013-09-08 16:38:00,
2013-09-08 06:43:00,71.0,66.3,29.92,NE,49,2.0,-999.0,85,0.00,,,0.00,PyWeather,2013-09-08 16:43:00,
2013-09-08 06:48:00,71.2,66.5,29.92,NE,51,0.0,-999.0,85,0.00,,,0.00,PyWeather,2013-09-08 16:48:00,
2013-09-08 06:53:00,71.6,66.9,29.92,NE,50,0.0,-999.0,85,0.00,,,0.00,PyWeather,2013-09-08 16:53:00,
2013-09-08 06:58:00,72.1,67.0,29.92,NE,50,0.0,-999.0,84,0.00,,,0.00,PyWeather,2013-09-08 16:58:00,
2013-09-08 07:03:00,72.5,67.4,29.92,NE,50,0.0,-999.0,84,0.00,,,0.00,PyWeather,2013-09-08 17:03:00,
2013-09-08 07:08:00,72.8,67.7,29.92,NE,50,0.0,-999.0,84,0.00,,,0.00,PyWeather,2013-09-08 17:08:00,
2013-09-08 07:13:00,73.4,68.0,29.92,NE,50,0.0,-999.0,83,0.00,,,0.00,PyWeather,2013-09-08 17:13:00,
2013-09-08 07:18:00,74.0,68.2,29.92,NE,50,0.0,-999.0,82,0.00,,,0.00,PyWeather,2013-09-08 17:18:00,
2013-09-08 07:23:00,74.4,68.3,29.92,NE,50,0.0,-999.0,81,0.00,,,0.00,PyWeather,2013-09-08 17:23:00,
2013-09-08 07:28:00,74.9,68.8,29.92,NE,51,0.0,-999.0,81,0.00,,,0.00,PyWeather,2013-09-08 17:28:00,
2013-09-08 07:33:00,75.5,69.0,29.92,NE,50,0.0,-999.0,80,0.00,,,0.00,PyWeather,2013-09-08 17:33:00,
2013-09-08 07:38:00,76.1,69.2,29.92,NE,50,0.0,-999.0,79,0.00,,,0.00,PyWeather,2013-09-08 17:38:00,
2013-09-08 07:43:00,76.7,69.1,29.92,NE,50,0.0,-999.0,77,0.00,,,0.00,PyWeather,2013-09-08 17:43:00,
2013-09-08 07:48:00,77.3,69.3,29.92,NE,50,0.0,-999.0,76,0.00,,,0.00,PyWeather,2013-09-08 17:48:00,
2013-09-08 07:53:00,77.9,69.1,29.92,ENE,61,1.0,-999.0,74,0.00,,,0.00,PyWeather,2013-09-08 17:53:00,
2013-09-08 07:58:00,78.3,69.1,29.92,ENE,60,2.0,-999.0,73,0.00,,,0.00,PyWeather,2013-09-08 17:58:00,
2013-09-08 08:03:00,78.4,68.8,29.92,NNE,30,2.0,-999.0,72,0.00,,,0.00,PyWeather,2013-09-08 18:03:00,
2013-09-08 08:08:00,78.5,69.3,29.93,North,11,2.0,-999.0,73,0.00,,,0.00,PyWeather,2013-09-08 18:08:00,
2013-09-08 08:13:00,79.1,69.5,29.92,NNE,19,1.0,-999.0,72,0.00,,,0.00,PyWeather,2013-09-08 18:13:00,
2013-09-08 08:18:00,79.4,69.4,29.92,NNE,19,1.0,-999.0,71,0.00,,,0.00,PyWeather,2013-09-08 18:18:00,
2013-09-08 08:23:00,79.6,69.2,29.93,NNE,19,0.0,-999.0,70,0.00,,,0.00,PyWeather,2013-09-08 18:23:00,
2013-09-08 08:28:00,79.9,69.0,29.93,NNE,19,0.0,-999.0,69,0.00,,,0.00,PyWeather,2013-09-08 18:28:00,
2013-09-08 08:33:00,80.1,69.2,29.92,North,9,1.0,-999.0,69,0.00,,,0.00,PyWeather,2013-09-08 18:33:00,
2013-09-08 08:38:00,80.2,69.3,29.93,North,9,2.0,-999.0,69,0.00,,,0.00,PyWeather,2013-09-08 18:38:00,
2013-09-08 08:43:00,80.4,69.5,29.93,North,355,1.0,-999.0,69,0.00,,,0.00,PyWeather,2013-09-08 18:43:00,
2013-09-08 08:48:00,81.0,69.7,29.93,ENE,71,1.0,-999.0,68,0.00,,,0.00,PyWeather,2013-09-08 18:48:00,
2013-09-08 08:53:00,81.4,69.6,29.93,North,360,1.0,-999.0,67,0.00,,,0.00,PyWeather,2013-09-08 18:53:00,
2013-09-08 16:24:00,86.3,71.1,29.85,NW,309,16.0,-999.0,60,0.00,,,0.00,PyWeather,2013-09-09 02:24:00,
2013-09-08 16:29:00,85.5,70.8,29.85,WNW,301,18.0,-999.0,61,0.00,,,0.00,PyWeather,2013-09-09 02:29:00,
2013-09-08 17:06:00,83.1,71.7,29.86,NW,314,19.0,-999.0,68,0.00,,,0.00,PyWeather,2013-09-09 03:06:00,
2013-09-08 17:52:00,81.9,70.1,29.88,West,261,14.0,-999.0,67,0.00,,,0.00,PyWeather,2013-09-09 03:52:00,
2013-09-08 17:57:00,81.6,70.3,29.88,WNW,301,13.0,-999.0,68,0.00,,,0.00,PyWeather,2013-09-09 03:57:00,
2013-09-08 19:12:00,80.5,69.6,29.91,North,355,5.0,-999.0,69,0.00,,,0.00,PyWeather,2013-09-09 05:12:00,
2013-09-08 19:13:00,80.5,69.6,29.91,NNE,24,4.0,-999.0,69,0.00,,,0.00,PyWeather,2013-09-09 05:13:00,
2013-09-08 19:14:00,80.5,69.6,29.91,North,9,4.0,-999.0,69,0.00,,,0.00,PyWeather,2013-09-09 05:14:00,
2013-09-08 19:15:00,80.5,69.6,29.91,NNW,344,3.0,-999.0,69,0.00,,,0.00,PyWeather,2013-09-09 05:15:00,
2013-09-08 19:20:00,80.6,69.7,29.91,NNW,344,1.0,-999.0,69,0.00,,,0.00,PyWeather,2013-09-09 05:20:00,
2013-09-08 19:25:00,80.5,69.6,29.92,NNW,344,0.0,-999.0,69,0.00,,,0.00,PyWeather,2013-09-09 05:25:00,
2013-09-08 19:30:00,80.3,69.8,29.92,NNW,344,0.0,-999.0,70,0.00,,,0.00,PyWeather,2013-09-09 05:30:00,
2013-09-08 19:35:00,79.9,69.5,29.92,NNW,345,0.0,-999.0,70,0.00,,,0.00,PyWeather,2013-09-09 05:35:00,
2013-09-08 19:40:00,79.7,69.7,29.92,NNW,344,0.0,-999.0,71,0.00,,,0.00,PyWeather,2013-09-09 05:40:00,
2013-09-08 19:45:00,78.6,69.0,29.92,NNW,339,1.0,-999.0,72,0.00,,,0.00,PyWeather,2013-09-09 05:45:00,
2013-09-08 19:50:00,77.8,69.0,29.92,NNW,348,3.0,-999.0,74,0.00,,,0.00,PyWeather,2013-09-09 05:50:00,
2013-09-08 19:55:00,77.5,69.5,29.93,North,9,5.0,-999.0,76,0.00,,,0.00,PyWeather,2013-09-09 05:55:00,
2013-09-08 21:30:00,75.3,66.2,29.96,North,9,1.0,-999.0,73,0.00,,,0.00,PyWeather,2013-09-09 07:30:00,
2013-09-08 21:36:00,74.6,65.9,29.96,North,355,0.0,-999.0,74,0.00,,,0.00,PyWeather,2013-09-09 07:36:00,
2013-09-08 21:41:00,74.2,65.5,29.96,North,355,1.0,-999.0,74,0.00,,,0.00,PyWeather,2013-09-09 07:41:00,
2013-09-08 21:46:00,74.4,65.0,29.96,NNW,339,2.0,-999.0,72,0.00,,,0.00,PyWeather,2013-09-09 07:46:00,
2013-09-08 21:51:00,75.0,65.2,29.96,NNW,347,3.0,-999.0,71,0.00,,,0.00,PyWeather,2013-09-09 07:51:00,
2013-09-08 21:56:00,75.5,65.6,29.96,North,10,6.0,10.0,71,0.00,,,0.00,PyWeather,2013-09-09 07:56:00,